Terminal Aerodrome Forecast
Issued by NWS Sterling, VA

Home | Current Version | Previous Version | Text Only | Print | Product List | Glossary On
Versions: 1 2 3 4 5 6 7 8 9 10 11 12 13 14 15 16 17
000
FTUS41 KLWX 311725
TAFCHO
TAF
KCHO 311725Z 3118/0118 19006KT P6SM VCTS SCT050CB BKN110
     FM010300 VRB03KT P6SM SCT080 BKN200
     FM010600 VRB03KT 3SM BR SCT060 BKN200
     FM011500 01005KT P6SM SCT070 BKN080=

USA.gov is the U.S. government's official web portal to all federal, state and local government web resources and services.